Terminal Aerodrome Forecast
Issued by NWS

Current Version | Previous Version | Graphics & Text | Print | Product List | Glossary On
Versions: 1 2 3 4 5 6 7 8 9 10 11 12 13 14 15 16 17 18 19
124
FTUS41 KPBZ 200658 AAA
TAFHLG
TAF AMD
KHLG 200658Z 2007/2106 27012KT P6SM OVC035
      TEMPO 2007/2008 26012G25KT BKN025
     FM201300 23012KT P6SM SCT035
     FM201700 23012G20KT P6SM SKC
     FM202300 19006KT P6SM SKC=

USA.gov is the U.S. government's official web portal to all federal, state and local government web resources and services.